createdAt,value
2018-06-01T00:00:02.474Z,38.60
2018-06-01T00:02:31.459Z,38.80
2018-06-01T00:05:00.499Z,38.00
2018-06-01T00:07:28.729Z,37.47
2018-06-01T00:09:57.007Z,40.03
2018-06-01T00:12:26.056Z,37.47
2018-06-01T00:14:54.430Z,39.20
2018-06-01T00:17:22.687Z,38.67
2018-06-01T00:19:50.930Z,38.47
2018-06-01T00:22:19.948Z,39.60
2018-06-01T00:24:48.231Z,38.10
2018-06-01T00:27:16.515Z,39.03
2018-06-01T00:29:44.785Z,42.70
2018-06-01T00:32:13.140Z,39.23
2018-06-01T00:34:41.404Z,39.03
2018-06-01T00:37:10.492Z,42.97
2018-06-01T00:39:39.516Z,42.30
2018-06-01T00:42:08.566Z,39.90
2018-06-01T00:44:38.005Z,39.60
2018-06-01T00:47:06.276Z,46.30
2018-06-01T00:49:35.382Z,43.30
2018-06-01T00:52:03.659Z,42.00
2018-06-01T00:54:43.782Z,39.53
2018-06-01T00:57:12.873Z,44.93
2018-06-01T00:59:41.145Z,42.83
2018-06-01T01:02:10.390Z,42.10
2018-06-01T01:04:38.634Z,43.47
2018-06-01T01:07:07.590Z,46.63
2018-06-01T01:09:36.598Z,38.47
2018-06-01T01:12:05.578Z,41.27
2018-06-01T01:14:34.520Z,47.47
2018-06-01T01:17:02.774Z,49.87
2018-06-01T01:19:31.034Z,55.00
2018-06-01T01:21:59.313Z,51.17
2018-06-01T01:24:27.544Z,53.10
2018-06-01T01:26:55.746Z,55.37
2018-06-01T01:29:24.738Z,54.63
2018-06-01T01:31:54.038Z,56.00
2018-06-01T01:34:23.134Z,52.80
2018-06-01T01:36:52.127Z,55.00
2018-06-01T01:39:21.113Z,49.50
2018-06-01T01:41:50.107Z,55.23
2018-06-01T01:44:19.122Z,52.50
2018-06-01T01:46:47.377Z,53.10
2018-06-01T01:49:15.660Z,53.83
2018-06-01T01:51:43.937Z,55.70
2018-06-01T01:54:12.197Z,54.97
2018-06-01T01:56:41.170Z,54.27
2018-06-01T01:59:10.304Z,55.63
2018-06-01T02:01:38.545Z,56.43
2018-06-01T02:04:06.726Z,55.83
2018-06-01T02:06:35.824Z,56.70
2018-06-01T02:09:04.830Z,57.00
2018-06-01T02:11:33.051Z,54.50
2018-06-01T02:14:01.390Z,56.40
2018-06-01T02:16:29.642Z,55.77
2018-06-01T02:18:58.632Z,58.57
2018-06-01T02:21:27.641Z,55.70
2018-06-01T02:23:55.837Z,53.13
2018-06-01T02:26:24.065Z,52.50
2018-06-01T02:28:53.057Z,50.57
2018-06-01T02:31:22.079Z,52.53
2018-06-01T02:33:50.335Z,49.90
2018-06-01T02:36:18.601Z,57.00
2018-06-01T02:38:47.598Z,59.77
2018-06-01T02:41:16.597Z,60.53
2018-06-01T02:43:44.805Z,68.30
2018-06-01T02:46:13.051Z,58.60
2018-06-01T02:48:41.321Z,58.40
2018-06-01T02:51:09.592Z,65.50
2018-06-01T02:53:37.823Z,62.83
2018-06-01T02:56:06.235Z,57.87
2018-06-01T02:58:34.723Z,61.10
2018-06-01T03:01:03.717Z,64.93
2018-06-01T03:03:31.934Z,67.20
2018-06-01T03:06:00.157Z,62.53
2018-06-01T03:08:28.382Z,63.77
2018-06-01T03:10:56.726Z,77.93
2018-06-01T03:13:24.956Z,67.27
2018-06-01T03:15:53.169Z,77.20
2018-06-01T03:18:21.380Z,77.13
2018-06-01T03:20:49.913Z,76.07
2018-06-01T03:23:18.997Z,71.20
2018-06-01T03:25:47.209Z,77.70
2018-06-01T03:28:15.457Z,72.23
2018-06-01T03:30:43.712Z,76.57
2018-06-01T03:33:12.706Z,82.30
2018-06-01T03:35:41.696Z,81.70
2018-06-01T03:38:11.109Z,79.97
2018-06-01T03:40:39.385Z,78.40
2018-06-01T03:43:07.648Z,79.23
2018-06-01T03:45:35.930Z,82.60
2018-06-01T03:48:04.146Z,80.87
2018-06-01T03:50:32.373Z,77.37
2018-06-01T03:53:00.649Z,78.37
2018-06-01T03:55:28.927Z,73.40
2018-06-01T03:57:57.218Z,76.77
2018-06-01T04:00:25.433Z,75.00
2018-06-01T04:02:54.558Z,74.77
2018-06-01T04:05:22.845Z,75.60
2018-06-01T04:07:51.117Z,76.50
2018-06-01T04:10:20.093Z,73.60
2018-06-01T04:12:49.103Z,74.60
2018-06-01T04:15:18.094Z,72.30
2018-06-01T04:17:46.375Z,73.77
2018-06-01T04:20:14.595Z,75.37
2018-06-01T04:22:42.943Z,77.80
2018-06-01T04:25:11.142Z,76.27
2018-06-01T04:27:39.532Z,76.80
2018-06-01T04:30:07.721Z,75.40
2018-06-01T04:32:35.942Z,78.10
2018-06-01T04:35:04.175Z,78.00
2018-06-01T04:37:33.176Z,75.60
2018-06-01T04:40:02.190Z,74.30
2018-06-01T04:42:30.419Z,70.83
2018-06-01T04:44:58.652Z,73.60
2018-06-01T04:47:26.898Z,68.00
2018-06-01T04:49:55.163Z,73.40
2018-06-01T04:52:24.273Z,69.43
2018-06-01T04:54:52.519Z,71.40
2018-06-01T04:57:21.521Z,69.70
2018-06-01T04:59:49.757Z,71.43
2018-06-01T05:02:17.960Z,70.30
2018-06-01T05:04:46.973Z,70.17
2018-06-01T05:07:15.201Z,71.63
2018-06-01T05:09:43.413Z,71.33
2018-06-01T05:12:12.004Z,69.17
2018-06-01T05:14:40.213Z,73.50
2018-06-01T05:17:08.422Z,70.50
2018-06-01T05:19:37.431Z,69.60
2018-06-01T05:22:06.429Z,67.20
2018-06-01T05:24:34.675Z,68.07
2018-06-01T05:27:02.992Z,69.63
2018-06-01T05:29:31.225Z,71.67
2018-06-01T05:31:59.522Z,64.93
2018-06-01T05:34:27.812Z,67.67
2018-06-01T05:36:56.046Z,66.23
2018-06-01T05:39:24.345Z,68.80
2018-06-01T05:41:53.451Z,64.90
2018-06-01T05:44:21.726Z,65.90
2018-06-01T05:46:49.947Z,65.27
2018-06-01T05:49:18.181Z,65.00
2018-06-01T05:51:46.413Z,66.00
2018-06-01T05:54:15.429Z,69.23
2018-06-01T05:56:43.651Z,73.40
2018-06-01T05:59:11.886Z,72.77
2018-06-01T06:01:40.367Z,72.63
2018-06-01T06:04:08.585Z,73.53
2018-06-01T06:06:36.817Z,70.70
2018-06-01T06:09:05.899Z,72.67
2018-06-01T06:11:34.180Z,71.13
2018-06-01T06:14:02.560Z,68.17
2018-06-01T06:16:30.786Z,68.50
2018-06-01T06:18:59.158Z,69.20
2018-06-01T06:21:27.341Z,69.27
2018-06-01T06:23:55.581Z,65.20
2018-06-01T06:26:23.827Z,67.90
2018-06-01T06:28:52.057Z,65.50
2018-06-01T06:31:21.865Z,63.00
2018-06-01T06:33:50.021Z,62.43
2018-06-01T06:36:18.261Z,63.77
2018-06-01T06:38:46.485Z,62.17
2018-06-01T06:41:14.799Z,58.30
2018-06-01T06:43:43.022Z,61.63
2018-06-01T06:46:11.345Z,59.40
2018-06-01T06:48:40.357Z,60.27
2018-06-01T06:51:08.561Z,62.20
2018-06-01T06:53:36.882Z,61.47
2018-06-01T06:56:05.985Z,63.53
2018-06-01T06:58:34.971Z,64.77
2018-06-01T07:01:04.078Z,62.40
2018-06-01T07:03:32.305Z,63.80
2018-06-01T07:06:00.526Z,61.20
2018-06-01T07:08:28.753Z,60.20
2018-06-01T07:10:56.961Z,59.93
2018-06-01T07:13:25.198Z,60.00
2018-06-01T07:15:53.425Z,56.70
2018-06-01T07:18:21.687Z,58.20
2018-06-01T07:20:50.082Z,58.23
2018-06-01T07:23:18.340Z,56.37
2018-06-01T07:25:47.335Z,56.27
2018-06-01T07:28:15.578Z,56.27
2018-06-01T07:30:43.879Z,54.43
2018-06-01T07:33:12.113Z,56.47
2018-06-01T07:35:40.443Z,55.00
2018-06-01T07:38:08.661Z,55.40
2018-06-01T07:40:36.974Z,52.80
2018-06-01T07:43:05.307Z,53.37
2018-06-01T07:45:33.555Z,50.57
2018-06-01T07:48:01.758Z,53.30
2018-06-01T07:50:29.991Z,52.77
2018-06-01T07:52:58.262Z,50.67
2018-06-01T07:55:26.531Z,52.07
2018-06-01T07:57:54.753Z,54.87
2018-06-01T08:00:22.996Z,50.33
2018-06-01T08:02:51.245Z,50.17
2018-06-01T08:05:19.474Z,50.40
2018-06-01T08:07:47.802Z,50.53
2018-06-01T08:10:16.037Z,51.20
2018-06-01T08:12:44.355Z,51.67
2018-06-01T08:15:12.586Z,50.33
2018-06-01T08:17:40.802Z,50.73
2018-06-01T08:20:09.022Z,50.93
2018-06-01T08:22:37.273Z,49.13
2018-06-01T08:25:05.512Z,49.37
2018-06-01T08:27:34.614Z,51.10
2018-06-01T08:30:02.838Z,51.07
2018-06-01T08:32:31.097Z,51.30
2018-06-01T08:35:00.042Z,52.50
2018-06-01T08:37:29.049Z,50.50
2018-06-01T08:39:57.281Z,54.13
2018-06-01T08:42:25.535Z,55.47
2018-06-01T08:44:53.755Z,50.90
2018-06-01T08:47:22.025Z,51.77
2018-06-01T08:49:51.014Z,53.67
2018-06-01T08:52:20.002Z,52.77
2018-06-01T08:54:48.997Z,52.97
2018-06-01T08:57:17.997Z,50.70
2018-06-01T08:59:46.970Z,52.40
2018-06-01T09:02:16.053Z,54.40
2018-06-01T09:04:44.250Z,54.33
2018-06-01T09:07:13.239Z,54.63
2018-06-01T09:09:42.229Z,53.70
2018-06-01T09:12:11.233Z,54.00
2018-06-01T09:14:39.470Z,53.90
2018-06-01T09:17:07.682Z,56.27
2018-06-01T09:19:35.908Z,53.80
2018-06-01T09:22:04.163Z,52.03
2018-06-01T09:24:32.361Z,52.37
2018-06-01T09:27:00.583Z,54.07
2018-06-01T09:29:28.797Z,54.13
2018-06-01T09:31:57.834Z,53.23
2018-06-01T09:34:26.121Z,55.60
2018-06-01T09:36:55.207Z,57.30
2018-06-01T09:39:23.456Z,58.53
2018-06-01T09:41:51.758Z,57.67
2018-06-01T09:44:20.026Z,57.10
2018-06-01T09:46:49.119Z,53.83
2018-06-01T09:49:18.114Z,56.93
2018-06-01T09:51:47.099Z,56.80
2018-06-01T09:54:16.502Z,59.53
2018-06-01T09:56:45.478Z,60.43
2018-06-01T09:59:14.469Z,56.57
2018-06-01T10:01:42.766Z,58.90
2018-06-01T10:04:10.989Z,59.33
2018-06-01T10:06:39.311Z,57.97
2018-06-01T10:09:08.303Z,60.87
2018-06-01T10:11:36.577Z,60.97
2018-06-01T10:14:05.595Z,59.00
2018-06-01T10:16:33.809Z,60.90
2018-06-01T10:19:02.050Z,57.27
2018-06-01T10:21:30.405Z,59.30
2018-06-01T10:23:58.775Z,60.33
2018-06-01T10:26:27.949Z,59.80
2018-06-01T10:28:56.203Z,59.17
2018-06-01T10:31:24.697Z,60.27
2018-06-01T10:33:53.015Z,60.57
2018-06-01T10:36:21.695Z,58.60
2018-06-01T10:38:50.073Z,59.80
2018-06-01T10:41:18.318Z,58.67
2018-06-01T10:43:47.305Z,59.37
2018-06-01T10:46:15.592Z,61.83
2018-06-01T10:48:44.694Z,57.00
2018-06-01T10:51:13.882Z,58.87
2018-06-01T10:53:42.996Z,58.27
2018-06-01T10:56:11.274Z,59.27
2018-06-01T10:58:39.494Z,56.97
2018-06-01T11:01:08.520Z,56.50
2018-06-01T11:03:36.709Z,59.07
2018-06-01T11:06:04.918Z,57.93
2018-06-01T11:08:33.266Z,60.60
2018-06-01T11:11:01.481Z,59.20
2018-06-01T11:13:29.734Z,62.03
2018-06-01T11:15:57.966Z,57.57
2018-06-01T11:18:26.957Z,58.37
2018-06-01T11:20:55.186Z,57.90
2018-06-01T11:23:23.614Z,59.53
2018-06-01T11:25:51.886Z,60.37
2018-06-01T11:28:20.102Z,61.03
2018-06-01T11:30:48.327Z,57.97
2018-06-01T11:33:17.361Z,60.20
2018-06-01T11:35:45.566Z,59.77
2018-06-01T11:38:13.807Z,60.13
2018-06-01T11:40:42.045Z,59.10
2018-06-01T11:43:10.352Z,58.47
2018-06-01T11:45:38.589Z,55.67
2018-06-01T11:48:07.686Z,56.67
2018-06-01T11:50:35.898Z,56.90
2018-06-01T11:53:04.143Z,58.10
2018-06-01T11:55:32.353Z,54.90
2018-06-01T11:58:00.687Z,55.23
2018-06-01T12:00:28.965Z,52.77
2018-06-01T12:02:57.186Z,53.40
2018-06-01T12:05:25.399Z,55.47
2018-06-01T12:07:54.598Z,52.90
2018-06-01T12:10:23.597Z,55.27
2018-06-01T12:12:52.565Z,54.73
2018-06-01T12:15:21.552Z,56.13
2018-06-01T12:17:49.908Z,55.90
2018-06-01T12:20:18.845Z,55.33
2018-06-01T12:22:47.057Z,53.80
2018-06-01T12:25:15.262Z,55.03
2018-06-01T12:27:43.564Z,52.67
2018-06-01T12:30:12.605Z,50.90
2018-06-01T12:32:40.845Z,51.13
2018-06-01T12:35:09.053Z,51.50
2018-06-01T12:37:37.376Z,51.70
2018-06-01T12:40:05.550Z,48.70
2018-06-01T12:42:34.560Z,50.13
2018-06-01T12:45:02.766Z,52.10
2018-06-01T12:47:31.091Z,51.00
2018-06-01T12:50:00.078Z,49.97
2018-06-01T12:52:29.114Z,48.00
2018-06-01T12:54:57.341Z,51.13
2018-06-01T12:57:25.630Z,47.60
2018-06-01T12:59:54.671Z,46.70
2018-06-01T13:02:22.990Z,46.90
2018-06-01T13:04:52.005Z,46.87
2018-06-01T13:07:20.215Z,45.10
2018-06-01T13:09:48.436Z,46.00
2018-06-01T13:12:16.711Z,45.93
2018-06-01T13:14:44.955Z,45.00
2018-06-01T13:17:13.154Z,44.73
2018-06-01T13:19:42.254Z,44.03
2018-06-01T13:22:10.471Z,45.87
2018-06-01T13:24:38.700Z,46.43
2018-06-01T13:27:07.669Z,46.77
2018-06-01T13:29:36.666Z,47.43
2018-06-01T13:32:05.645Z,49.73
2018-06-01T13:34:33.886Z,49.70
2018-06-01T13:37:02.162Z,47.40
2018-06-01T13:39:30.381Z,48.33
2018-06-01T13:41:59.421Z,47.70
2018-06-01T13:44:28.383Z,48.40
2018-06-01T13:46:56.599Z,46.67
2018-06-01T13:49:24.945Z,52.17
2018-06-01T13:51:53.905Z,49.47
2018-06-01T13:54:22.921Z,48.90
2018-06-01T13:56:51.197Z,48.83
2018-06-01T13:59:19.450Z,52.17
2018-06-01T14:01:48.445Z,51.90
2018-06-01T14:04:17.462Z,53.90
2018-06-01T14:06:45.692Z,48.67
2018-06-01T14:09:14.706Z,48.57
2018-06-01T14:11:43.720Z,47.17
2018-06-01T14:14:11.988Z,47.13
2018-06-01T14:16:40.278Z,50.10
2018-06-01T14:19:08.473Z,50.87
2018-06-01T14:21:36.670Z,49.80
2018-06-01T14:24:04.975Z,49.90
2018-06-01T14:26:34.163Z,50.93
2018-06-01T14:29:02.343Z,52.80
2018-06-01T14:31:30.606Z,51.87
2018-06-01T14:33:59.624Z,55.90
2018-06-01T14:36:28.961Z,55.00
2018-06-01T14:38:58.021Z,54.87
2018-06-01T14:41:26.241Z,54.33
2018-06-01T14:43:54.477Z,56.93
2018-06-01T14:46:22.704Z,54.40
2018-06-01T14:48:51.022Z,53.53
2018-06-01T14:51:19.965Z,55.37
2018-06-01T14:53:48.994Z,51.13
2018-06-01T14:56:17.220Z,53.53
2018-06-01T14:58:45.526Z,51.40
2018-06-01T15:01:14.198Z,51.00
2018-06-01T15:03:42.495Z,50.80
2018-06-01T15:06:10.766Z,50.07
2018-06-01T15:08:39.048Z,49.63
2018-06-01T15:11:07.277Z,49.73
2018-06-01T15:13:35.510Z,50.73
2018-06-01T15:16:03.734Z,49.80
2018-06-01T15:18:32.730Z,49.43
2018-06-01T15:21:01.734Z,50.87
2018-06-01T15:23:30.731Z,48.20
2018-06-01T15:25:59.013Z,49.57
2018-06-01T15:28:27.499Z,45.53
2018-06-01T15:30:55.727Z,43.77
2018-06-01T15:33:24.026Z,46.07
2018-06-01T15:35:53.073Z,44.20
2018-06-01T15:38:21.273Z,42.90
2018-06-01T15:40:49.520Z,41.87
2018-06-01T15:43:17.873Z,40.20
2018-06-01T15:45:46.108Z,37.37
2018-06-01T15:48:15.104Z,37.63
2018-06-01T15:50:44.098Z,35.43
2018-06-01T15:53:13.117Z,32.97
2018-06-01T15:55:41.365Z,30.10
2018-06-01T15:58:10.354Z,31.30
2018-06-01T16:00:39.342Z,30.17
2018-06-01T16:03:08.345Z,35.83
2018-06-01T16:05:36.576Z,39.73
2018-06-01T16:08:04.906Z,41.77
2018-06-01T16:10:33.131Z,49.87
2018-06-01T16:13:01.354Z,58.07
2018-06-01T16:15:29.586Z,61.00
2018-06-01T16:17:57.804Z,64.10
2018-06-01T16:20:26.041Z,65.17
2018-06-01T16:22:54.337Z,66.27
2018-06-01T16:25:22.557Z,66.13
2018-06-01T16:27:50.785Z,66.70
2018-06-01T16:30:20.028Z,65.90
2018-06-01T16:32:48.247Z,70.73
2018-06-01T16:35:17.235Z,70.50
2018-06-01T16:37:46.346Z,65.60
2018-06-01T16:40:14.621Z,65.63
2018-06-01T16:42:42.834Z,66.00
2018-06-01T16:45:11.065Z,69.60
2018-06-01T16:47:39.285Z,69.57
2018-06-01T16:50:07.747Z,69.40
2018-06-01T16:52:35.955Z,68.57
2018-06-01T16:55:04.294Z,70.43
2018-06-01T16:57:32.966Z,70.33
2018-06-01T17:00:01.182Z,69.63
2018-06-01T17:02:30.452Z,67.73
2018-06-01T17:04:58.737Z,65.50
2018-06-01T17:07:27.082Z,70.23
2018-06-01T17:09:55.374Z,65.43
2018-06-01T17:12:23.618Z,64.10
2018-06-01T17:14:52.615Z,63.60
2018-06-01T17:17:21.594Z,60.17
2018-06-01T17:19:50.592Z,58.17
2018-06-01T17:22:19.590Z,61.00
2018-06-01T17:24:47.817Z,58.20
2018-06-01T17:27:16.045Z,57.67
2018-06-01T17:29:44.294Z,55.20
2018-06-01T17:32:13.530Z,55.23
2018-06-01T17:34:42.021Z,51.97
2018-06-01T17:37:10.244Z,51.33
2018-06-01T17:39:39.252Z,54.67
2018-06-01T17:42:07.484Z,56.63
2018-06-01T17:44:35.867Z,55.50
2018-06-01T17:47:04.078Z,54.17
2018-06-01T17:49:32.346Z,51.20
2018-06-01T17:52:01.342Z,51.80
2018-06-01T17:54:30.329Z,54.00
2018-06-01T17:56:59.443Z,52.17
2018-06-01T17:59:27.661Z,51.17
2018-06-01T18:01:55.885Z,52.37
2018-06-01T18:04:24.101Z,51.50
2018-06-01T18:06:52.413Z,52.50
2018-06-01T18:09:20.697Z,51.20
2018-06-01T18:11:51.700Z,54.10
2018-06-01T18:14:19.930Z,51.07
2018-06-01T18:16:48.138Z,51.77
2018-06-01T18:19:16.462Z,54.47
2018-06-01T18:21:44.705Z,51.20
2018-06-01T18:24:12.892Z,52.83
2018-06-01T18:26:41.890Z,55.63
2018-06-01T18:29:10.889Z,54.00
2018-06-01T18:31:39.389Z,50.67
2018-06-01T18:34:07.619Z,53.80
2018-06-01T18:36:36.641Z,51.40
2018-06-01T18:39:05.661Z,55.97
2018-06-01T18:41:33.906Z,54.20
2018-06-01T18:44:02.213Z,54.27
2018-06-01T18:46:31.157Z,53.10
2018-06-01T18:49:00.157Z,55.20
2018-06-01T18:51:30.190Z,54.30
2018-06-01T18:53:59.164Z,55.33
2018-06-01T18:56:28.159Z,54.70
2018-06-01T18:58:57.150Z,53.57
2018-06-01T19:01:26.139Z,53.97
2018-06-01T19:03:55.233Z,52.70
2018-06-01T19:06:24.252Z,55.10
2018-06-01T19:08:52.482Z,52.53
2018-06-01T19:11:21.506Z,54.53
2018-06-01T19:13:49.762Z,54.17
2018-06-01T19:16:18.769Z,52.43
2018-06-01T19:18:47.031Z,49.93
2018-06-01T19:21:16.023Z,52.70
2018-06-01T19:23:45.017Z,51.13
2018-06-01T19:26:14.117Z,52.07
2018-06-01T19:28:42.348Z,50.50
2018-06-01T19:31:12.100Z,51.57
2018-06-01T19:33:41.094Z,51.07
2018-06-01T19:36:09.310Z,51.33
2018-06-01T19:38:37.547Z,50.73
2018-06-01T19:41:06.638Z,48.57
2018-06-01T19:43:35.634Z,48.17
2018-06-01T19:46:03.887Z,48.80
2018-06-01T19:48:32.896Z,50.17
2018-06-01T19:51:01.132Z,48.87
2018-06-01T19:53:29.355Z,51.50
2018-06-01T19:55:57.585Z,49.77
2018-06-01T19:58:27.318Z,49.30
2018-06-01T20:00:56.338Z,52.00
2018-06-01T20:03:24.602Z,49.10
2018-06-01T20:05:52.835Z,52.90
2018-06-01T20:08:21.038Z,52.57
2018-06-01T20:10:49.297Z,49.20
2018-06-01T20:13:18.326Z,49.80
2018-06-01T20:15:47.265Z,53.30
2018-06-01T20:18:16.382Z,50.43
2018-06-01T20:20:44.609Z,51.80
2018-06-01T20:23:12.930Z,50.50
2018-06-01T20:25:42.141Z,50.80
2018-06-01T20:28:10.370Z,50.83
2018-06-01T20:30:39.360Z,51.20
2018-06-01T20:33:07.685Z,50.87
2018-06-01T20:35:36.678Z,53.10
2018-06-01T20:38:04.923Z,52.07
2018-06-01T20:40:33.950Z,49.70
2018-06-01T20:43:02.449Z,53.97
2018-06-01T20:45:30.687Z,52.77
2018-06-01T20:47:58.899Z,49.30
2018-06-01T20:50:27.281Z,53.30
2018-06-01T20:52:55.642Z,52.67
2018-06-01T20:55:23.865Z,51.90
2018-06-01T20:57:53.078Z,50.47
2018-06-01T21:00:21.306Z,51.50
2018-06-01T21:02:49.514Z,50.73
2018-06-01T21:05:18.625Z,51.67
2018-06-01T21:07:46.845Z,52.87
2018-06-01T21:10:15.060Z,51.53
2018-06-01T21:12:44.403Z,51.47
2018-06-01T21:15:12.692Z,51.00
2018-06-01T21:17:40.946Z,50.10
2018-06-01T21:20:09.209Z,49.27
2018-06-01T21:22:37.454Z,51.70
2018-06-01T21:25:06.497Z,46.73
2018-06-01T21:27:34.718Z,50.60
2018-06-01T21:30:03.839Z,46.80
2018-06-01T21:32:32.799Z,44.20
2018-06-01T21:35:01.802Z,46.47
2018-06-01T21:37:30.829Z,43.97
2018-06-01T21:39:59.053Z,40.20
2018-06-01T21:42:28.060Z,39.10
2018-06-01T21:44:57.005Z,39.50
2018-06-01T21:47:25.212Z,35.50
2018-06-01T21:49:54.326Z,33.90
2018-06-01T21:52:22.547Z,32.47
2018-06-01T21:54:50.745Z,31.37
2018-06-01T21:57:19.730Z,31.47
2018-06-01T21:59:49.467Z,30.40
2018-06-01T22:02:18.658Z,30.27
2018-06-01T22:04:47.680Z,31.60
2018-06-01T22:07:15.910Z,32.20
2018-06-01T22:09:44.205Z,34.07
2018-06-01T22:12:12.437Z,34.47
2018-06-01T22:14:40.678Z,31.40
2018-06-01T22:17:08.913Z,34.23
2018-06-01T22:19:37.917Z,35.17
2018-06-01T22:22:06.159Z,36.43
2018-06-01T22:24:35.137Z,37.00
2018-06-01T22:27:04.177Z,35.97
2018-06-01T22:29:32.457Z,38.60
2018-06-01T22:32:00.697Z,38.60
2018-06-01T22:34:28.926Z,40.40
2018-06-01T22:36:57.142Z,39.50
2018-06-01T22:39:25.461Z,40.63
2018-06-01T22:41:53.822Z,42.10
2018-06-01T22:44:22.035Z,43.47
2018-06-01T22:46:50.269Z,44.30
2018-06-01T22:49:19.359Z,44.67
2018-06-01T22:51:48.460Z,47.03
2018-06-01T22:54:16.733Z,44.77
2018-06-01T22:56:45.674Z,43.83
2018-06-01T22:59:13.882Z,45.07
2018-06-01T23:01:42.882Z,46.17
2018-06-01T23:04:11.177Z,45.17
2018-06-01T23:06:39.441Z,45.63
2018-06-01T23:09:07.667Z,48.93
2018-06-01T23:11:36.127Z,47.73
2018-06-01T23:14:04.365Z,47.57
2018-06-01T23:16:32.657Z,48.90
2018-06-01T23:19:00.907Z,44.43
2018-06-01T23:21:29.907Z,44.07
2018-06-01T23:23:58.187Z,41.50
2018-06-01T23:26:26.393Z,41.37
2018-06-01T23:28:54.649Z,42.30
2018-06-01T23:31:22.878Z,39.67
2018-06-01T23:33:51.874Z,37.70
2018-06-01T23:36:20.871Z,37.03
2018-06-01T23:38:49.864Z,38.90
2018-06-01T23:41:18.857Z,37.47
2018-06-01T23:43:47.868Z,38.03
2018-06-01T23:46:16.104Z,36.90
2018-06-01T23:48:44.596Z,35.50
2018-06-01T23:51:13.623Z,35.27
2018-06-01T23:53:41.829Z,36.10
2018-06-01T23:56:10.167Z,37.00
2018-06-01T23:58:38.390Z,34.70
